AirNav   Air Wisconsin Up To $57,000 Bonus
 
 1625 users online  

0MD6 Walters Airport
Mount Airy, Maryland, USA

GOING TO MOUNT AIRY?


FAA INFORMATION EFFECTIVE 08 OCTOBER 2020

Location

FAA Identifier: 0MD6
Lat/Long: 39-22-52.3720N 077-06-20.9310W
39-22.872867N 077-06.348850W
39.3812144,-77.1058142
(estimated)
Elevation: 750 ft. / 229 m (estimated)
Variation: 10W (1985)
From city: 3 miles NE of MOUNT AIRY, MD
Time zone: UTC -4 (UTC -5 during Standard Time)
Zip code: 21771

Airport Operations

Airport use: Private use. Permission required prior to landing
Activation date: 12/1977
Control tower: no
ARTCC: WASHINGTON CENTER
FSS: LEESBURG FLIGHT SERVICE STATION
Attendance: UNATNDD
Wind indicator: yes
Segmented circle: no

Airport Communications

WX AWOS-3 at FDK (13 nm W): 124.875 (301-600-1457)
WX AWOS-3PT at GAI (13 nm S): 128.275 (301-977-2971)
WX AWOS-3 at DMW (14 nm N): 121.25 (410-876-1281)

Nearby radio navigation aids

VOR radial/distance  VOR name  Freq  Var
EMIr229/9.0WESTMINSTER VORTAC117.9008W
FDKr106/(12.6)FREDERICK VOR109.0008W
BALr312/24.2BALTIMORE VORTAC115.1011W
DCAr003/31.5WASHINGTON VOR/DME111.0009W
AMLr040/31.6ARMEL VOR/DME113.5008W
MRBr097/34.4MARTINSBURG VORTAC112.1007W
ADWr352/36.2ANDREWS VORTAC113.1010W
HGRr126/(39.6)HAGERSTOWN VOR109.8007W

 
NDB name  Hdg/Dist  Freq  Var  ID
ELLICOTT301/16.337111WFND ..-. -. -..
GEORGETOWN011/27.132309WGTN --. - -.
OXONN005/37.133211WDCA -.. -.-. .-

Airport Services

Runway Information

Runway 5/23

Dimensions: 1800 x 60 ft. / 549 x 18 m
Surface: turf
RUNWAY 5  RUNWAY 23
Traffic pattern: rightright

Airport Ownership and Management from official FAA records

Ownership: Privately-owned
Owner: DON C WALTERS
7017 WATERSVILLE ROAD
MT AIRY, MD 21771
Phone 240-285-0500
Manager: DON C WALTERS
7017 WATERSVILLE ROAD
MT AIRY, MD 21771
Phone 240-285-0500

Airport Operational Statistics

Aircraft based on the field: 1
Single engine airplanes: 1
    

Additional Remarks

FOR CD CTC POTOMAC APCH AT 866-429-5882.

Instrument Procedures

There are no published instrument procedures at 0MD6.

Some nearby airports with instrument procedures:

2W2 - Clearview Airpark (7 nm NE)
W50 - Davis Airport (9 nm S)
KFDK - Frederick Municipal Airport (13 nm W)
KGAI - Montgomery County Airpark (13 nm S)
KDMW - Carroll County Regional Airport/Jack B Poage Field (14 nm N)
 
Loc | Ops | Rwys | IFR | FBO | Links
Com | Nav | Svcs | Stats | Notes
Area around 0MD6 (Walters Airport)
 
Road maps at: MapQuest Bing Google
 
Aerial photo
No photo
 
Sectional chart

 
Airport distance calculator
Flying to Walters Airport? Find the distance to fly.

From to 0MD6

Sunrise and sunset
Times for 20-Oct-2020
 Local
(UTC-4)
 Zulu
(UTC)
Morning civil twilight06:5810:58
Sunrise07:2611:26
Sunset18:2122:21
Evening civil twilight18:4822:48

Current date and time
Zulu (UTC)  20-Oct-2020 18:34:19
Local (UTC-4)  20-Oct-2020 14:34:19
 
METAR
KFDK 
12nm W 
201747Z 00000KT 10SM SCT040 24/15 A3021
KGAI 
13nm S 
201756Z AUTO VRB03KT 10SM CLR 24/15 A3022 RMK AO2 SLP244 T02440150 10244 20139 58013
KDMW 
14nm N 
201815Z AUTO 00000KT 10SM CLR 24/15 A3020 RMK AO2
KBWI 
23nm SE 
201754Z 14006KT 10SM FEW022 SCT120 BKN250 23/16 A3021 RMK AO2 SLP228 T02280156 10233 20156 58014
KFME 
24nm SE 
201815Z AUTO 15003KT 10SM CLR 22/16 A3023 RMK AO1
TAF
KBWI 
23nm SE 
201721Z 2018/2124 18005KT P6SM SCT150 FM210200 VRB03KT P6SM BKN025 FM210400 VRB03KT 2SM BR OVC008 FM210800 VRB03KT 1 1/2SM BR OVC003 FM211500 18005KT 5SM BR BKN008 FM211700 19007KT P6SM SCT035
NOTAMs
Click for the latest NOTAMs
NOTAMs are issued by the DoD/FAA and will open in a separate window not controlled by AirNav.

 

 
 

Would you like to see your business listed on this page?

 If your business provides an interesting product or service to pilots, flight crews, aircraft, or users of the Walters Airport, you should consider listing it here.  To start the listing process, click on the button below
 
Add a business
 

Other Pages about Walters Airport

Update a link
 
Copyright © AirNav, LLC. All rights reserved. Privacy Policy  Contact